Time;durP1;ratioP1;P1;durP2;ratioP2;P2;SDS_P1;SDS_P2;PMS_P1;PMS_P2;Temp;Humidity;BMP_temperature;BMP_pressure;BME280_temperature;BME280_humidity;BME280_pressure;Samples;Min_cycle;Max_cycle;Signal;HPM_P1;HPM_P2
2022/06/29 00:00:49;;;;;;;7.35;2.85;;;;;;;;;;4402949;32;20781;-57
2022/06/29 00:03:15;;;;;;;3.15;2.83;;;;;;;;;;4402478;32;20218;-57
2022/06/29 00:05:41;;;;;;;4.40;2.47;;;;;;;;;;4403013;32;20209;-58
2022/06/29 00:08:07;;;;;;;3.15;2.78;;;;;;;;;;4402076;32;20303;-58
2022/06/29 00:10:34;;;;;;;5.45;2.97;;;;;;;;;;4402684;32;20231;-58
2022/06/29 00:12:59;;;;;;;11.15;3.17;;;;;;;;;;4403855;32;20742;-57
2022/06/29 00:15:25;;;;;;;8.88;3.10;;;;;;;;;;4406077;32;20269;-57
2022/06/29 00:17:50;;;;;;;5.53;3.17;;;;;;;;;;4405727;32;20275;-58
2022/06/29 00:20:16;;;;;;;9.50;3.08;;;;;;;;;;4405380;32;20205;-58
2022/06/29 00:22:43;;;;;;;4.87;2.92;;;;;;;;;;4405659;32;20663;-58
2022/06/29 00:25:10;;;;;;;5.32;2.83;;;;;;;;;;4404350;32;20209;-58
2022/06/29 00:27:36;;;;;;;4.37;2.53;;;;;;;;;;4405606;32;20359;-58
2022/06/29 00:30:02;;;;;;;8.43;3.25;;;;;;;;;;4405344;32;20280;-57
2022/06/29 00:32:28;;;;;;;3.50;3.03;;;;;;;;;;4405153;32;20264;-58
2022/06/29 00:34:53;;;;;;;3.67;2.83;;;;;;;;;;4404876;32;20591;-57
2022/06/29 00:37:19;;;;;;;3.20;2.90;;;;;;;;;;4405036;32;20271;-57
2022/06/29 00:39:44;;;;;;;3.10;2.80;;;;;;;;;;4394920;32;20707;-57
2022/06/29 00:42:10;;;;;;;4.15;2.90;;;;;;;;;;4395419;32;20753;-57
2022/06/29 00:44:36;;;;;;;4.40;2.92;;;;;;;;;;4405276;32;20201;-57
2022/06/29 00:47:04;;;;;;;6.50;3.10;;;;;;;;;;4404843;32;20649;-57
2022/06/29 00:49:32;;;;;;;4.68;2.60;;;;;;;;;;4405351;32;20209;-58
2022/06/29 00:52:20;;;;;;;7.05;3.08;;;;;;;;;;4404550;32;20252;-57
2022/06/29 00:54:52;;;;;;;3.85;3.08;;;;;;;;;;4404982;32;20244;-57
2022/06/29 00:57:27;;;;;;;4.55;3.12;;;;;;;;;;4405171;32;20337;-57
2022/06/29 00:59:54;;;;;;;3.70;3.20;;;;;;;;;;4405249;32;20189;-57
2022/06/29 01:02:25;;;;;;;5.85;3.22;;;;;;;;;;4405008;32;20303;-58
2022/06/29 01:04:51;;;;;;;9.60;4.35;;;;;;;;;;4403784;32;20280;-58
2022/06/29 01:07:20;;;;;;;4.20;3.28;;;;;;;;;;4404843;32;20279;-56
2022/06/29 01:09:45;;;;;;;3.67;3.28;;;;;;;;;;4404647;32;20306;-56
2022/06/29 01:12:12;;;;;;;8.80;6.65;;;;;;;;;;4404796;32;20531;-55
2022/06/29 01:14:40;;;;;;;17.25;12.05;;;;;;;;;;4404575;32;20197;-56
2022/06/29 01:17:06;;;;;;;12.40;10.48;;;;;;;;;;4404724;32;20795;-57
2022/06/29 01:19:31;;;;;;;9.70;5.93;;;;;;;;;;4404943;32;20197;-55
2022/06/29 01:22:01;;;;;;;6.68;4.93;;;;;;;;;;4404049;32;20233;-56
2022/06/29 01:24:26;;;;;;;8.25;4.28;;;;;;;;;;4403843;32;20202;-56
2022/06/29 01:26:52;;;;;;;5.62;4.40;;;;;;;;;;4404628;32;20291;-56
2022/06/29 01:29:17;;;;;;;4.80;4.00;;;;;;;;;;4403615;32;20268;-56
2022/06/29 01:31:44;;;;;;;4.12;3.72;;;;;;;;;;4404120;32;20966;-56
2022/06/29 01:34:09;;;;;;;5.90;4.12;;;;;;;;;;4404240;32;20214;-56
2022/06/29 01:36:35;;;;;;;4.45;3.37;;;;;;;;;;4403990;32;20241;-56
2022/06/29 01:39:00;;;;;;;6.25;3.50;;;;;;;;;;4398630;32;20247;-57
2022/06/29 01:41:26;;;;;;;4.12;3.33;;;;;;;;;;4390111;32;20234;-57
2022/06/29 01:43:52;;;;;;;11.63;4.15;;;;;;;;;;4404323;32;20197;-56
2022/06/29 01:46:18;;;;;;;4.62;3.72;;;;;;;;;;4404080;32;20292;-56
2022/06/29 01:48:43;;;;;;;6.82;3.53;;;;;;;;;;4404273;32;20303;-56
2022/06/29 01:51:08;;;;;;;6.53;3.67;;;;;;;;;;4404384;32;20599;-56
2022/06/29 01:53:34;;;;;;;5.53;3.03;;;;;;;;;;4403509;32;20240;-56
2022/06/29 01:55:59;;;;;;;6.45;3.70;;;;;;;;;;4403611;32;20270;-56
2022/06/29 01:58:25;;;;;;;4.37;3.42;;;;;;;;;;4404072;32;20248;-56
2022/06/29 02:00:50;;;;;;;4.00;3.25;;;;;;;;;;4403822;32;20278;-56
2022/06/29 02:03:16;;;;;;;8.07;3.08;;;;;;;;;;4404071;32;20214;-56
2022/06/29 02:05:41;;;;;;;7.55;4.22;;;;;;;;;;4403836;32;20210;-56
2022/06/29 02:08:07;;;;;;;4.15;3.30;;;;;;;;;;4403406;32;20432;-56
2022/06/29 02:10:33;;;;;;;4.53;3.45;;;;;;;;;;4403992;32;20546;-56
2022/06/29 02:12:58;;;;;;;5.07;3.30;;;;;;;;;;4403773;32;20642;-56
2022/06/29 02:15:24;;;;;;;3.92;3.28;;;;;;;;;;4404049;32;20200;-56
2022/06/29 02:17:50;;;;;;;6.15;3.67;;;;;;;;;;4402651;32;20586;-56
2022/06/29 02:20:16;;;;;;;4.90;3.67;;;;;;;;;;4403495;32;20237;-56
2022/06/29 02:22:42;;;;;;;6.15;3.37;;;;;;;;;;4403146;32;20233;-56
2022/06/29 02:25:09;;;;;;;4.53;3.30;;;;;;;;;;4403885;32;20205;-56
2022/06/29 02:27:41;;;;;;;4.30;3.50;;;;;;;;;;4403413;32;20308;-56
2022/06/29 02:30:09;;;;;;;4.57;3.00;;;;;;;;;;4404019;32;20221;-58
2022/06/29 02:35:18;;;;;;;6.75;3.58;;;;;;;;;;4403083;32;20291;-57
2022/06/29 02:37:43;;;;;;;6.95;3.92;;;;;;;;;;4402872;32;20754;-56
2022/06/29 02:40:10;;;;;;;5.62;4.07;;;;;;;;;;4403242;32;20240;-56
2022/06/29 02:42:35;;;;;;;6.20;4.12;;;;;;;;;;4403520;32;20306;-56
2022/06/29 02:45:01;;;;;;;6.80;4.20;;;;;;;;;;4403347;32;20214;-56
2022/06/29 02:47:27;;;;;;;5.55;3.97;;;;;;;;;;4403239;32;20245;-57
2022/06/29 02:49:53;;;;;;;5.68;3.78;;;;;;;;;;4403327;32;20355;-56
2022/06/29 02:52:18;;;;;;;6.00;4.18;;;;;;;;;;4402767;32;20264;-57
2022/06/29 02:54:44;;;;;;;5.03;3.72;;;;;;;;;;4403434;32;20228;-57
2022/06/29 02:57:09;;;;;;;6.75;4.40;;;;;;;;;;4403270;32;20233;-57
2022/06/29 02:59:35;;;;;;;6.35;4.78;;;;;;;;;;4403196;32;20202;-57
2022/06/29 03:02:00;;;;;;;4.45;4.00;;;;;;;;;;4402922;32;20264;-56
2022/06/29 03:04:26;;;;;;;12.40;4.60;;;;;;;;;;4403002;32;20596;-57
2022/06/29 03:06:51;;;;;;;7.05;4.15;;;;;;;;;;4402754;32;20571;-57
2022/06/29 03:09:17;;;;;;;8.63;4.75;;;;;;;;;;4403397;32;20209;-57
2022/06/29 03:11:42;;;;;;;5.78;4.05;;;;;;;;;;4402855;32;20233;-57
2022/06/29 03:14:07;;;;;;;5.03;4.00;;;;;;;;;;4402828;32;20573;-57
2022/06/29 03:16:33;;;;;;;5.35;4.15;;;;;;;;;;4402943;32;20657;-56
2022/06/29 03:18:58;;;;;;;12.10;3.58;;;;;;;;;;4402949;32;20244;-56
2022/06/29 03:21:24;;;;;;;5.07;4.05;;;;;;;;;;4402216;32;20666;-56
2022/06/29 03:23:49;;;;;;;4.82;4.25;;;;;;;;;;4398101;32;20221;-56
2022/06/29 03:26:15;;;;;;;6.10;4.45;;;;;;;;;;4387766;32;20767;-56
2022/06/29 03:28:40;;;;;;;7.07;4.55;;;;;;;;;;4388065;32;20555;-56
2022/06/29 03:31:06;;;;;;;9.70;4.93;;;;;;;;;;4387639;32;20316;-56
2022/06/29 03:33:31;;;;;;;4.75;3.85;;;;;;;;;;4387310;32;20248;-56
2022/06/29 03:35:57;;;;;;;6.20;4.85;;;;;;;;;;4387116;32;20314;-58
2022/06/29 03:38:23;;;;;;;9.18;4.87;;;;;;;;;;4389189;32;20714;-56
2022/06/29 03:40:49;;;;;;;9.73;4.53;;;;;;;;;;4402641;32;20236;-56
2022/06/29 03:43:15;;;;;;;6.72;4.95;;;;;;;;;;4402461;32;20205;-56
2022/06/29 03:45:41;;;;;;;6.53;4.60;;;;;;;;;;4402680;32;20554;-55
2022/06/29 03:48:06;;;;;;;5.82;4.55;;;;;;;;;;4402200;32;20256;-55
2022/06/29 03:50:32;;;;;;;8.45;4.45;;;;;;;;;;4402786;32;20684;-57
2022/06/29 03:52:58;;;;;;;7.47;4.22;;;;;;;;;;4402695;32;20270;-55
2022/06/29 03:55:23;;;;;;;4.68;4.10;;;;;;;;;;4402824;32;20361;-55
2022/06/29 03:57:49;;;;;;;4.65;4.15;;;;;;;;;;4402653;32;20626;-57
2022/06/29 04:00:15;;;;;;;5.97;4.60;;;;;;;;;;4402968;32;20645;-56
2022/06/29 04:02:41;;;;;;;5.60;3.80;;;;;;;;;;4402212;32;20256;-56
2022/06/29 04:05:07;;;;;;;12.27;5.00;;;;;;;;;;4402859;32;20232;-56
2022/06/29 04:07:33;;;;;;;7.00;4.28;;;;;;;;;;4402247;32;20222;-57
2022/06/29 04:10:01;;;;;;;5.55;4.53;;;;;;;;;;4402333;32;20276;-57
2022/06/29 04:12:28;;;;;;;5.35;4.37;;;;;;;;;;4402405;32;20374;-57
2022/06/29 04:14:53;;;;;;;9.40;4.90;;;;;;;;;;4402568;32;20336;-58
2022/06/29 04:17:19;;;;;;;7.10;4.82;;;;;;;;;;4402310;32;20229;-57
2022/06/29 04:19:44;;;;;;;6.40;4.65;;;;;;;;;;4400073;32;20253;-56
2022/06/29 04:22:10;;;;;;;9.10;5.37;;;;;;;;;;4386707;32;20322;-57
2022/06/29 04:24:35;;;;;;;10.77;5.82;;;;;;;;;;4387535;32;20255;-56
2022/06/29 04:27:01;;;;;;;6.30;4.95;;;;;;;;;;4387196;32;20248;-56
2022/06/29 04:29:26;;;;;;;6.80;4.43;;;;;;;;;;4387264;32;20210;-56
2022/06/29 04:31:52;;;;;;;9.70;5.25;;;;;;;;;;4387141;32;20217;-55
2022/06/29 04:34:17;;;;;;;5.82;4.55;;;;;;;;;;4387146;32;20707;-56
2022/06/29 04:36:43;;;;;;;10.30;5.53;;;;;;;;;;4387023;32;20356;-55
2022/06/29 04:39:08;;;;;;;12.75;4.95;;;;;;;;;;4387187;32;20240;-56
2022/06/29 04:41:33;;;;;;;7.68;4.75;;;;;;;;;;4388720;32;20425;-56
2022/06/29 04:43:59;;;;;;;16.17;5.07;;;;;;;;;;4402306;32;20647;-57
2022/06/29 04:46:24;;;;;;;10.25;4.70;;;;;;;;;;4402533;32;20574;-56
2022/06/29 04:48:56;;;;;;;5.93;3.58;;;;;;;;;;4402140;32;20240;-56
2022/06/29 04:51:23;;;;;;;5.20;3.92;;;;;;;;;;4402115;32;20255;-57
2022/06/29 04:53:49;;;;;;;9.48;4.32;;;;;;;;;;4402149;32;20313;-57
2022/06/29 04:56:15;;;;;;;6.93;4.40;;;;;;;;;;4401980;32;20234;-57
2022/06/29 04:58:42;;;;;;;7.43;4.43;;;;;;;;;;4402042;32;20221;-57
2022/06/29 05:01:08;;;;;;;5.45;4.10;;;;;;;;;;4404539;32;20228;-57
2022/06/29 05:03:33;;;;;;;7.78;4.22;;;;;;;;;;4405055;32;20285;-57
2022/06/29 05:05:59;;;;;;;4.50;3.75;;;;;;;;;;4404242;32;20675;-57
2022/06/29 05:08:24;;;;;;;5.82;3.80;;;;;;;;;;4404769;32;20623;-57
2022/06/29 05:10:50;;;;;;;4.07;3.50;;;;;;;;;;4404673;32;20201;-57
2022/06/29 05:13:15;;;;;;;7.10;3.83;;;;;;;;;;4404500;32;20270;-57
2022/06/29 05:15:41;;;;;;;5.68;3.85;;;;;;;;;;4404293;32;20205;-56
2022/06/29 05:18:06;;;;;;;11.80;4.60;;;;;;;;;;4389170;32;20645;-57
2022/06/29 05:20:32;;;;;;;5.72;3.47;;;;;;;;;;4389521;32;20210;-57
2022/06/29 05:22:58;;;;;;;7.45;4.07;;;;;;;;;;4389362;32;20530;-57
2022/06/29 05:25:24;;;;;;;12.02;4.37;;;;;;;;;;4389516;32;20296;-57
2022/06/29 05:27:49;;;;;;;4.90;4.45;;;;;;;;;;4388278;32;20312;-57
2022/06/29 05:30:15;;;;;;;7.35;5.18;;;;;;;;;;4389614;32;20229;-56
2022/06/29 05:32:42;;;;;;;50.95;16.87;;;;;;;;;;4388347;32;20265;-56
2022/06/29 05:35:09;;;;;;;5.10;4.53;;;;;;;;;;4387468;32;20252;-55
2022/06/29 05:37:34;;;;;;;17.55;6.28;;;;;;;;;;4388457;32;20858;-56
2022/06/29 05:40:00;;;;;;;16.10;5.43;;;;;;;;;;4400295;32;20221;-56
2022/06/29 05:42:25;;;;;;;8.82;5.43;;;;;;;;;;4404101;32;20267;-56
2022/06/29 05:44:51;;;;;;;7.37;4.90;;;;;;;;;;4404025;32;20210;-57
2022/06/29 05:47:16;;;;;;;26.02;5.03;;;;;;;;;;4404078;32;20221;-57
2022/06/29 05:49:42;;;;;;;7.28;5.10;;;;;;;;;;4404191;32;20504;-57
2022/06/29 05:52:08;;;;;;;7.55;5.70;;;;;;;;;;4403693;32;20267;-57
2022/06/29 05:54:33;;;;;;;9.80;5.72;;;;;;;;;;4403916;32;20273;-57
2022/06/29 05:56:59;;;;;;;14.43;6.45;;;;;;;;;;4403832;32;20229;-57
2022/06/29 05:59:24;;;;;;;6.00;4.65;;;;;;;;;;4402738;32;20241;-57
2022/06/29 06:01:50;;;;;;;6.57;5.47;;;;;;;;;;4403551;32;20661;-57
2022/06/29 06:04:15;;;;;;;9.43;5.78;;;;;;;;;;4403307;32;20518;-57
2022/06/29 06:06:41;;;;;;;7.65;4.82;;;;;;;;;;4403310;32;20307;-57
2022/06/29 06:09:06;;;;;;;7.65;5.12;;;;;;;;;;4403750;32;20201;-57
2022/06/29 06:11:32;;;;;;;5.53;4.95;;;;;;;;;;4403272;32;20638;-57
2022/06/29 06:13:57;;;;;;;6.37;4.90;;;;;;;;;;4389860;32;20210;-57
2022/06/29 06:16:23;;;;;;;8.68;5.45;;;;;;;;;;4388320;32;20285;-57
2022/06/29 06:18:48;;;;;;;6.50;5.78;;;;;;;;;;4388659;32;20276;-56
2022/06/29 06:21:15;;;;;;;7.25;5.47;;;;;;;;;;4388361;32;20237;-57
2022/06/29 06:23:40;;;;;;;6.50;4.72;;;;;;;;;;4388443;32;20217;-57
2022/06/29 06:26:06;;;;;;;7.10;5.07;;;;;;;;;;4388218;32;20753;-56
2022/06/29 06:28:31;;;;;;;12.23;5.95;;;;;;;;;;4388366;32;20218;-56
2022/06/29 06:30:57;;;;;;;6.78;5.55;;;;;;;;;;4388087;32;20267;-56
2022/06/29 06:33:22;;;;;;;11.88;6.07;;;;;;;;;;4388880;32;20218;-56
2022/06/29 06:35:48;;;;;;;8.90;5.95;;;;;;;;;;4387500;32;20230;-56
2022/06/29 06:38:14;;;;;;;7.97;5.47;;;;;;;;;;4387606;32;20799;-56
2022/06/29 06:43:23;;;;;;;10.27;5.60;;;;;;;;;;4401367;32;20307;-56
2022/06/29 06:45:49;;;;;;;7.93;5.53;;;;;;;;;;4403980;32;20618;-56
2022/06/29 06:48:14;;;;;;;11.68;5.82;;;;;;;;;;4396645;32;20205;-57
2022/06/29 06:50:40;;;;;;;5.85;5.12;;;;;;;;;;4387711;32;20649;-57
2022/06/29 06:53:06;;;;;;;6.07;5.30;;;;;;;;;;4386423;32;20242;-57
2022/06/29 06:55:31;;;;;;;10.63;7.45;;;;;;;;;;4393272;32;20253;-57
2022/06/29 06:57:57;;;;;;;8.23;6.37;;;;;;;;;;4403080;32;20275;-56
2022/06/29 07:00:22;;;;;;;7.72;5.68;;;;;;;;;;4402636;32;20266;-56
2022/06/29 07:02:48;;;;;;;11.57;6.15;;;;;;;;;;4401332;32;20284;-56
2022/06/29 07:05:13;;;;;;;9.07;5.87;;;;;;;;;;4402620;32;20296;-56
2022/06/29 07:07:39;;;;;;;9.55;6.97;;;;;;;;;;4401525;32;20267;-56
2022/06/29 07:10:05;;;;;;;9.07;5.72;;;;;;;;;;4390266;32;20221;-56
2022/06/29 07:12:30;;;;;;;9.85;6.40;;;;;;;;;;4392915;32;20242;-56
2022/06/29 07:14:56;;;;;;;12.88;6.75;;;;;;;;;;4402908;32;20197;-56
2022/06/29 07:17:21;;;;;;;8.18;6.22;;;;;;;;;;4402626;32;20228;-57
2022/06/29 07:19:47;;;;;;;8.45;6.93;;;;;;;;;;4402998;32;20230;-56
2022/06/29 07:22:12;;;;;;;8.13;6.28;;;;;;;;;;4402264;32;20704;-57
2022/06/29 07:24:38;;;;;;;10.13;7.60;;;;;;;;;;4402629;32;20365;-56
2022/06/29 07:27:03;;;;;;;7.78;6.95;;;;;;;;;;4402813;32;20320;-56
2022/06/29 07:29:29;;;;;;;11.85;6.40;;;;;;;;;;4402706;32;20634;-56
2022/06/29 07:31:54;;;;;;;10.55;6.62;;;;;;;;;;4402790;32;20233;-57
2022/06/29 07:34:20;;;;;;;8.30;5.72;;;;;;;;;;4402599;32;20277;-57
2022/06/29 07:36:45;;;;;;;8.65;7.03;;;;;;;;;;4402373;32;20764;-57
2022/06/29 07:39:11;;;;;;;6.32;5.57;;;;;;;;;;4396186;32;20582;-57
2022/06/29 07:41:36;;;;;;;12.55;5.80;;;;;;;;;;4387410;32;20221;-56
2022/06/29 07:44:05;;;;;;;8.65;6.35;;;;;;;;;;4386725;32;20229;-57
2022/06/29 07:46:31;;;;;;;9.88;6.62;;;;;;;;;;4387918;32;20334;-56
2022/06/29 07:48:56;;;;;;;5.82;5.20;;;;;;;;;;4387325;32;20213;-57
2022/06/29 07:51:22;;;;;;;8.25;5.97;;;;;;;;;;4386836;32;20234;-57
2022/06/29 07:53:48;;;;;;;10.25;5.57;;;;;;;;;;4387571;32;20226;-56
2022/06/29 07:56:13;;;;;;;6.85;5.80;;;;;;;;;;4397282;32;20299;-56
2022/06/29 07:58:38;;;;;;;6.65;5.28;;;;;;;;;;4403253;32;20316;-57
2022/06/29 08:01:04;;;;;;;7.10;5.00;;;;;;;;;;4402323;32;20263;-57
2022/06/29 08:03:31;;;;;;;8.93;5.90;;;;;;;;;;4402468;32;20254;-56
2022/06/29 08:06:00;;;;;;;15.70;5.00;;;;;;;;;;4402055;32;20633;-57
2022/06/29 08:08:25;;;;;;;14.32;5.53;;;;;;;;;;4403163;32;20624;-58
2022/06/29 08:10:51;;;;;;;6.90;4.22;;;;;;;;;;4403343;32;20226;-57
2022/06/29 08:13:17;;;;;;;5.43;4.93;;;;;;;;;;4402711;32;20243;-56
2022/06/29 08:15:45;;;;;;;6.32;5.20;;;;;;;;;;4402904;32;20236;-56
2022/06/29 08:18:14;;;;;;;7.32;4.95;;;;;;;;;;4402294;32;20291;-57
2022/06/29 08:20:40;;;;;;;16.50;5.22;;;;;;;;;;4402318;32;20692;-57
2022/06/29 08:23:06;;;;;;;5.62;4.50;;;;;;;;;;4402502;32;20238;-57
2022/06/29 08:25:32;;;;;;;9.50;4.80;;;;;;;;;;4402102;32;20282;-57
2022/06/29 08:27:57;;;;;;;7.75;4.47;;;;;;;;;;4400875;32;20241;-58
2022/06/29 08:30:24;;;;;;;6.35;4.50;;;;;;;;;;4402501;32;20347;-56
2022/06/29 08:32:50;;;;;;;6.57;3.85;;;;;;;;;;4401945;32;20268;-57
2022/06/29 08:35:17;;;;;;;6.12;4.43;;;;;;;;;;4405194;32;20213;-57
2022/06/29 08:37:44;;;;;;;7.78;4.70;;;;;;;;;;4404912;32;20216;-57
2022/06/29 08:40:13;;;;;;;4.80;4.03;;;;;;;;;;4405268;32;20717;-57
2022/06/29 08:42:39;;;;;;;6.43;4.32;;;;;;;;;;4405477;32;20768;-57
2022/06/29 08:45:07;;;;;;;6.00;4.37;;;;;;;;;;4405387;32;20197;-58
2022/06/29 08:47:33;;;;;;;4.30;3.90;;;;;;;;;;4404166;32;20329;-59
2022/06/29 08:49:58;;;;;;;9.80;2.97;;;;;;;;;;4403378;32;20234;-58
2022/06/29 08:52:28;;;;;;;5.90;3.50;;;;;;;;;;4405173;32;20316;-57
2022/06/29 08:54:54;;;;;;;3.72;3.35;;;;;;;;;;4404987;32;20279;-57
2022/06/29 08:57:21;;;;;;;4.50;3.92;;;;;;;;;;4404904;32;20225;-58
2022/06/29 08:59:51;;;;;;;7.57;4.05;;;;;;;;;;4405269;32;20567;-57
2022/06/29 09:02:16;;;;;;;10.02;3.72;;;;;;;;;;4393325;32;20264;-57
2022/06/29 09:04:42;;;;;;;5.00;3.20;;;;;;;;;;4390048;32;20205;-56
2022/06/29 09:07:07;;;;;;;5.10;3.53;;;;;;;;;;4389399;32;20378;-57
2022/06/29 09:09:56;;;;;;;4.75;3.25;;;;;;;;;;4389944;32;20305;-57
2022/06/29 09:12:21;;;;;;;9.32;3.70;;;;;;;;;;4393930;32;20295;-57
2022/06/29 09:14:47;;;;;;;7.85;3.37;;;;;;;;;;4405130;32;20213;-57
2022/06/29 09:17:12;;;;;;;9.85;3.33;;;;;;;;;;4404623;32;20233;-57
2022/06/29 09:19:38;;;;;;;13.38;4.28;;;;;;;;;;4403412;32;20237;-57
2022/06/29 09:22:03;;;;;;;11.32;3.30;;;;;;;;;;4405068;32;20397;-57
2022/06/29 09:24:32;;;;;;;12.60;3.60;;;;;;;;;;4404942;32;20285;-57
2022/06/29 09:27:04;;;;;;;12.20;3.20;;;;;;;;;;4404783;32;20340;-57
2022/06/29 09:29:31;;;;;;;4.32;3.05;;;;;;;;;;4404925;32;20228;-57
2022/06/29 09:32:09;;;;;;;5.28;3.28;;;;;;;;;;4404250;32;20306;-57
2022/06/29 09:34:34;;;;;;;4.70;3.50;;;;;;;;;;4404679;32;20284;-57
2022/06/29 09:37:02;;;;;;;5.97;3.72;;;;;;;;;;4404656;32;20260;-57
2022/06/29 09:39:34;;;;;;;5.47;3.85;;;;;;;;;;4396332;32;20293;-57
2022/06/29 09:42:02;;;;;;;4.12;3.67;;;;;;;;;;4393417;32;20241;-57
2022/06/29 09:44:28;;;;;;;6.78;3.50;;;;;;;;;;4404684;32;20260;-57
2022/06/29 09:46:55;;;;;;;5.43;3.67;;;;;;;;;;4404321;32;20646;-57
2022/06/29 09:49:26;;;;;;;6.90;4.25;;;;;;;;;;4404640;32;20210;-57
2022/06/29 09:51:57;;;;;;;12.25;3.78;;;;;;;;;;4404357;32;20264;-57
2022/06/29 09:54:34;;;;;;;4.82;3.50;;;;;;;;;;4404692;32;20213;-57
2022/06/29 09:57:00;;;;;;;5.12;3.87;;;;;;;;;;4403896;32;20287;-57
2022/06/29 10:02:35;;;;;;;6.12;3.22;;;;;;;;;;4404479;32;20826;-57
2022/06/29 10:05:15;;;;;;;10.10;3.17;;;;;;;;;;4404773;32;20201;-58
2022/06/29 10:07:42;;;;;;;7.05;3.62;;;;;;;;;;4404900;32;20232;-57
2022/06/29 10:10:17;;;;;;;7.00;3.55;;;;;;;;;;4404745;32;20387;-57
2022/06/29 10:16:00;;;;;;;6.35;3.42;;;;;;;;;;4404401;32;20224;-57
2022/06/29 10:19:03;;;;;;;9.27;3.83;;;;;;;;;;4404193;32;20574;-57
2022/06/29 10:21:31;;;;;;;9.07;3.75;;;;;;;;;;4403841;32;20292;-56
2022/06/29 10:24:01;;;;;;;5.60;3.05;;;;;;;;;;4404188;32;20255;-55
2022/06/29 10:26:33;;;;;;;8.63;3.20;;;;;;;;;;4404296;32;20530;-57
2022/06/29 10:29:07;;;;;;;3.40;2.87;;;;;;;;;;4404037;32;20201;-57
2022/06/29 10:31:51;;;;;;;6.05;3.50;;;;;;;;;;4404057;32;20787;-57
2022/06/29 10:34:32;;;;;;;8.00;3.30;;;;;;;;;;4403761;32;20214;-56
2022/06/29 10:37:04;;;;;;;4.72;3.28;;;;;;;;;;4403695;32;20264;-57
2022/06/29 10:39:44;;;;;;;7.05;2.50;;;;;;;;;;4404223;32;20224;-57
2022/06/29 10:45:16;;;;;;;4.68;2.60;;;;;;;;;;4403663;32;20212;-57
2022/06/29 10:47:54;;;;;;;10.95;2.90;;;;;;;;;;4402639;32;20229;-57
2022/06/29 10:52:45;;;;;;;6.00;3.50;;;;;;;;;;4404125;32;20249;-57
2022/06/29 10:55:11;;;;;;;6.07;3.00;;;;;;;;;;4394361;32;20275;-57
2022/06/29 10:57:38;;;;;;;8.02;3.95;;;;;;;;;;4402977;32;20228;-57
2022/06/29 11:00:09;;;;;;;5.75;2.30;;;;;;;;;;4403846;32;20763;-57
2022/06/29 11:02:36;;;;;;;6.20;2.30;;;;;;;;;;4403920;32;20261;-57
2022/06/29 11:05:02;;;;;;;5.03;2.67;;;;;;;;;;4404190;32;20255;-57
2022/06/29 11:12:57;;;;;;;8.43;3.12;;;;;;;;;;4403677;32;20272;-57
2022/06/29 11:15:40;;;;;;;5.15;3.08;;;;;;;;;;4404192;32;20254;-57
2022/06/29 11:18:17;;;;;;;4.05;2.87;;;;;;;;;;4403039;32;20229;-57
2022/06/29 11:20:44;;;;;;;4.93;2.90;;;;;;;;;;4403855;32;20279;-57
2022/06/29 11:23:14;;;;;;;7.60;2.62;;;;;;;;;;4403824;32;20234;-57
2022/06/29 11:25:43;;;;;;;4.03;2.78;;;;;;;;;;4404422;32;20664;-56
2022/06/29 11:28:09;;;;;;;9.40;3.08;;;;;;;;;;4402369;32;20237;-56
2022/06/29 11:30:35;;;;;;;11.85;3.10;;;;;;;;;;4403802;32;20213;-56
2022/06/29 11:33:10;;;;;;;5.22;3.62;;;;;;;;;;4402072;32;20245;-57
2022/06/29 11:35:38;;;;;;;5.40;3.22;;;;;;;;;;4404055;32;20237;-57
2022/06/29 11:38:05;;;;;;;5.62;3.28;;;;;;;;;;4403472;32;20305;-57
2022/06/29 11:40:34;;;;;;;10.95;4.03;;;;;;;;;;4388105;32;20221;-57
2022/06/29 11:43:07;;;;;;;12.75;3.90;;;;;;;;;;4398698;32;20251;-57
2022/06/29 11:45:51;;;;;;;6.70;3.03;;;;;;;;;;4403946;32;20282;-57
2022/06/29 11:48:19;;;;;;;9.80;3.67;;;;;;;;;;4403700;32;20229;-57
2022/06/29 11:50:56;;;;;;;9.88;3.25;;;;;;;;;;4399701;32;20788;-57
2022/06/29 11:53:43;;;;;;;3.37;2.95;;;;;;;;;;4388951;32;20226;-57
2022/06/29 11:56:27;;;;;;;4.75;3.25;;;;;;;;;;4397175;32;20275;-58
2022/06/29 11:58:56;;;;;;;8.05;2.70;;;;;;;;;;4403663;32;20231;-57
2022/06/29 12:01:23;;;;;;;8.35;3.20;;;;;;;;;;4403703;32;20225;-58
2022/06/29 12:03:59;;;;;;;5.85;3.28;;;;;;;;;;4403736;32;20210;-58
2022/06/29 12:06:27;;;;;;;4.03;3.33;;;;;;;;;;4403701;32;20299;-58
2022/06/29 12:08:53;;;;;;;6.53;2.97;;;;;;;;;;4405029;32;20749;-58
2022/06/29 12:11:20;;;;;;;6.05;3.40;;;;;;;;;;4406452;32;20241;-57
2022/06/29 12:13:46;;;;;;;4.00;3.15;;;;;;;;;;4406579;32;20268;-58
2022/06/29 12:16:12;;;;;;;6.97;3.17;;;;;;;;;;4406626;32;20634;-58
2022/06/29 12:18:38;;;;;;;8.50;3.70;;;;;;;;;;4406153;32;20628;-58
2022/06/29 12:21:03;;;;;;;5.40;4.07;;;;;;;;;;4405077;32;20308;-57
2022/06/29 12:23:29;;;;;;;9.05;4.45;;;;;;;;;;4406571;32;20738;-58
2022/06/29 12:25:58;;;;;;;7.18;3.00;;;;;;;;;;4406090;32;20251;-57
2022/06/29 12:28:24;;;;;;;5.57;3.83;;;;;;;;;;4405583;32;20303;-56
2022/06/29 12:30:51;;;;;;;6.30;3.30;;;;;;;;;;4405460;32;20197;-57
2022/06/29 12:33:17;;;;;;;4.93;3.90;;;;;;;;;;4405472;32;20217;-57
2022/06/29 12:35:43;;;;;;;6.97;3.25;;;;;;;;;;4406248;32;20278;-57
2022/06/29 12:38:08;;;;;;;7.62;2.83;;;;;;;;;;4404477;32;20233;-58
2022/06/29 12:40:34;;;;;;;9.48;3.10;;;;;;;;;;4390275;32;20424;-57
2022/06/29 12:43:00;;;;;;;5.72;3.05;;;;;;;;;;4401062;32;20301;-57
2022/06/29 12:45:26;;;;;;;9.23;3.70;;;;;;;;;;4405526;32;20217;-57
2022/06/29 12:47:52;;;;;;;6.00;3.10;;;;;;;;;;4403889;32;20294;-57
2022/06/29 12:50:18;;;;;;;9.02;3.15;;;;;;;;;;4406151;32;20631;-58
2022/06/29 12:52:47;;;;;;;4.30;3.70;;;;;;;;;;4417130;32;20849;-58
2022/06/29 12:55:14;;;;;;;5.03;2.95;;;;;;;;;;4404719;32;20221;-58
2022/06/29 12:57:40;;;;;;;4.78;3.08;;;;;;;;;;4405952;32;20221;-57
2022/06/29 13:00:07;;;;;;;4.37;3.30;;;;;;;;;;4405892;32;20227;-58
2022/06/29 13:02:32;;;;;;;6.40;3.70;;;;;;;;;;4405174;32;20221;-57
2022/06/29 13:04:58;;;;;;;9.13;4.12;;;;;;;;;;4403424;32;20251;-58
2022/06/29 13:07:26;;;;;;;12.90;3.40;;;;;;;;;;4405462;32;20315;-57
2022/06/29 13:09:52;;;;;;;6.65;3.55;;;;;;;;;;4404752;32;20280;-57
2022/06/29 13:12:18;;;;;;;3.25;2.95;;;;;;;;;;4405120;32;20327;-58
2022/06/29 13:14:43;;;;;;;5.78;3.17;;;;;;;;;;4405962;32;20268;-58
2022/06/29 13:17:09;;;;;;;6.72;3.58;;;;;;;;;;4405257;32;20233;-58
2022/06/29 13:19:34;;;;;;;4.40;3.50;;;;;;;;;;4405322;32;20205;-57
2022/06/29 13:22:00;;;;;;;4.00;3.60;;;;;;;;;;4405274;32;20237;-58
2022/06/29 13:24:25;;;;;;;6.10;3.10;;;;;;;;;;4405942;32;20228;-58
2022/06/29 13:26:51;;;;;;;3.92;3.22;;;;;;;;;;4405643;32;20252;-58
2022/06/29 13:29:16;;;;;;;6.72;3.25;;;;;;;;;;4403928;32;20233;-58
2022/06/29 13:31:43;;;;;;;8.43;3.15;;;;;;;;;;4405356;32;20551;-58
2022/06/29 13:34:08;;;;;;;3.17;2.85;;;;;;;;;;4404892;32;20284;-58
2022/06/29 13:36:34;;;;;;;3.95;3.17;;;;;;;;;;4405632;32;20316;-57
2022/06/29 13:38:59;;;;;;;4.53;2.92;;;;;;;;;;4399757;32;20217;-57
2022/06/29 13:41:25;;;;;;;10.55;3.72;;;;;;;;;;4388672;32;20598;-57
2022/06/29 13:43:50;;;;;;;7.82;3.30;;;;;;;;;;4392369;32;20214;-57
2022/06/29 13:46:16;;;;;;;5.45;3.42;;;;;;;;;;4390247;32;20229;-58
2022/06/29 13:48:41;;;;;;;5.10;3.75;;;;;;;;;;4390129;32;20201;-57
2022/06/29 13:51:10;;;;;;;7.12;3.25;;;;;;;;;;4393983;32;20221;-57
2022/06/29 13:53:35;;;;;;;3.67;3.03;;;;;;;;;;4389927;32;20729;-58
2022/06/29 13:56:00;;;;;;;6.03;3.42;;;;;;;;;;4396004;32;20240;-58
2022/06/29 13:58:26;;;;;;;6.05;3.62;;;;;;;;;;4390171;32;20239;-58
2022/06/29 14:00:52;;;;;;;5.03;3.15;;;;;;;;;;4391097;32;20260;-57
2022/06/29 14:03:19;;;;;;;9.52;2.95;;;;;;;;;;4392384;32;20248;-57
2022/06/29 14:05:45;;;;;;;3.78;3.35;;;;;;;;;;4405487;32;20301;-57
2022/06/29 14:08:11;;;;;;;6.82;3.70;;;;;;;;;;4393818;32;20364;-58
2022/06/29 14:10:36;;;;;;;11.70;3.40;;;;;;;;;;4389311;32;20275;-58
2022/06/29 14:13:02;;;;;;;4.07;2.72;;;;;;;;;;4397471;32;20237;-58
2022/06/29 14:15:28;;;;;;;8.88;3.37;;;;;;;;;;4403169;32;20225;-58
2022/06/29 14:17:53;;;;;;;4.82;3.33;;;;;;;;;;4403657;32;20326;-58
2022/06/29 14:20:19;;;;;;;8.48;5.15;;;;;;;;;;4403870;32;20616;-58
2022/06/29 14:22:44;;;;;;;6.05;3.47;;;;;;;;;;4404513;32;20296;-58
2022/06/29 14:25:10;;;;;;;6.12;2.62;;;;;;;;;;4402836;32;20352;-58
2022/06/29 14:27:36;;;;;;;3.40;3.10;;;;;;;;;;4404471;32;20264;-58
2022/06/29 14:30:03;;;;;;;4.75;3.30;;;;;;;;;;4404226;32;20222;-57
2022/06/29 14:32:29;;;;;;;5.28;2.85;;;;;;;;;;4403847;32;20261;-57
2022/06/29 14:34:54;;;;;;;12.13;4.00;;;;;;;;;;4403822;32;20668;-57
2022/06/29 14:37:20;;;;;;;8.25;2.80;;;;;;;;;;4404641;32;20608;-58
2022/06/29 14:39:46;;;;;;;6.43;3.17;;;;;;;;;;4403637;32;20242;-58
2022/06/29 14:42:11;;;;;;;9.10;3.15;;;;;;;;;;4402964;32;20256;-58
2022/06/29 14:44:37;;;;;;;8.75;2.70;;;;;;;;;;4405394;32;20209;-58
2022/06/29 14:47:02;;;;;;;9.13;2.55;;;;;;;;;;4404665;32;20263;-58
2022/06/29 14:49:28;;;;;;;4.70;3.37;;;;;;;;;;4405041;32;20288;-57
2022/06/29 14:51:54;;;;;;;7.05;3.10;;;;;;;;;;4393721;32;20335;-58
2022/06/29 14:54:19;;;;;;;4.82;3.03;;;;;;;;;;4389200;32;20676;-57
2022/06/29 14:56:45;;;;;;;4.82;2.97;;;;;;;;;;4401583;32;20240;-58
2022/06/29 14:59:10;;;;;;;4.85;3.10;;;;;;;;;;4403993;32;20701;-58
2022/06/29 15:01:36;;;;;;;8.32;3.12;;;;;;;;;;4402734;32;20656;-57